createdAt,value
2017-08-30T00:00:25.479Z,15.70
2017-08-30T00:02:52.979Z,15.70
2017-08-30T00:05:20.503Z,15.60
2017-08-30T00:07:48.007Z,15.70
2017-08-30T00:10:15.528Z,15.70
2017-08-30T00:12:43.044Z,15.80
2017-08-30T00:15:10.571Z,15.70
2017-08-30T00:17:38.083Z,15.70
2017-08-30T00:20:05.603Z,15.70
2017-08-30T00:22:33.112Z,15.70
2017-08-30T00:27:59.767Z,15.60
2017-08-30T00:30:27.335Z,15.60
2017-08-30T00:32:54.840Z,15.60
2017-08-30T00:35:22.367Z,15.60
2017-08-30T00:37:50.644Z,15.60
2017-08-30T00:40:18.167Z,15.60
2017-08-30T00:42:45.667Z,15.60
2017-08-30T00:45:13.191Z,15.60
2017-08-30T00:47:40.699Z,15.60
2017-08-30T00:50:08.203Z,15.60
2017-08-30T00:52:35.727Z,15.50
2017-08-30T00:55:03.231Z,15.50
2017-08-30T00:57:30.754Z,15.50
2017-08-30T00:59:58.264Z,15.50
2017-08-30T01:02:25.791Z,15.40
2017-08-30T01:04:53.298Z,15.40
2017-08-30T01:07:20.832Z,15.40
2017-08-30T01:09:48.385Z,15.30
2017-08-30T01:12:15.912Z,15.40
2017-08-30T01:14:43.410Z,15.40
2017-08-30T01:17:10.935Z,15.40
2017-08-30T01:19:38.439Z,15.40
2017-08-30T01:22:05.963Z,15.50
2017-08-30T01:24:33.470Z,15.40
2017-08-30T01:27:00.995Z,15.50
2017-08-30T01:29:28.503Z,15.50
2017-08-30T01:31:56.219Z,15.50
2017-08-30T01:34:24.486Z,15.40
2017-08-30T01:36:52.007Z,15.40
2017-08-30T01:39:19.516Z,15.40
2017-08-30T01:41:47.035Z,15.40
2017-08-30T01:44:14.547Z,15.30
2017-08-30T01:46:42.050Z,15.30
2017-08-30T01:49:09.580Z,15.30
2017-08-30T01:51:37.082Z,15.30
2017-08-30T01:54:04.607Z,15.30
2017-08-30T01:56:32.107Z,15.30
2017-08-30T01:58:59.627Z,15.40
2017-08-30T02:01:27.132Z,15.30
2017-08-30T02:03:54.659Z,15.30
2017-08-30T02:06:22.167Z,15.40
2017-08-30T02:08:49.694Z,15.40
2017-08-30T02:11:17.199Z,15.40
2017-08-30T02:13:44.728Z,15.40
2017-08-30T02:16:12.232Z,15.40
2017-08-30T02:18:39.750Z,15.20
2017-08-30T02:21:07.259Z,15.10
2017-08-30T02:23:34.779Z,15.10
2017-08-30T02:26:02.287Z,15.10
2017-08-30T02:28:29.804Z,15.10
2017-08-30T02:30:57.313Z,15.10
2017-08-30T02:33:24.835Z,15.20
2017-08-30T02:35:52.339Z,15.30
2017-08-30T02:38:19.880Z,15.30
2017-08-30T02:40:47.387Z,15.40
2017-08-30T02:43:14.895Z,15.40
2017-08-30T02:45:42.425Z,15.40
2017-08-30T02:48:09.939Z,15.40
2017-08-30T02:50:37.463Z,15.40
2017-08-30T02:53:04.963Z,15.30
2017-08-30T02:55:32.486Z,15.40
2017-08-30T02:58:00.004Z,15.40
2017-08-30T03:00:27.536Z,15.40
2017-08-30T03:02:55.820Z,15.30
2017-08-30T03:05:23.355Z,15.20
2017-08-30T03:07:50.859Z,15.30
2017-08-30T03:10:18.383Z,15.30
2017-08-30T03:12:45.887Z,15.30
2017-08-30T03:15:13.411Z,15.30
2017-08-30T03:17:40.924Z,15.30
2017-08-30T03:20:08.442Z,15.30
2017-08-30T03:22:35.946Z,15.30
2017-08-30T03:25:03.468Z,15.30
2017-08-30T03:27:30.973Z,15.30
2017-08-30T03:29:58.491Z,15.20
2017-08-30T03:32:25.994Z,15.20
2017-08-30T03:34:53.519Z,15.10
2017-08-30T03:37:21.031Z,15.00
2017-08-30T03:39:48.538Z,15.00
2017-08-30T03:42:16.050Z,15.00
2017-08-30T03:44:43.559Z,15.00
2017-08-30T03:47:11.080Z,15.00
2017-08-30T03:49:38.594Z,15.00
2017-08-30T03:52:06.114Z,15.10
2017-08-30T03:54:33.624Z,15.10
2017-08-30T03:57:01.151Z,15.10
2017-08-30T03:59:28.650Z,15.00
2017-08-30T04:01:56.175Z,15.10
2017-08-30T04:04:23.683Z,15.00
2017-08-30T04:06:51.207Z,15.00
2017-08-30T04:09:18.716Z,15.10
2017-08-30T04:11:46.238Z,15.20
2017-08-30T04:14:13.754Z,15.20
2017-08-30T04:16:41.279Z,15.20
2017-08-30T04:19:08.787Z,15.10
2017-08-30T04:21:36.308Z,15.10
2017-08-30T04:24:03.806Z,15.10
2017-08-30T04:26:31.323Z,15.00
2017-08-30T04:28:58.820Z,15.00
2017-08-30T04:31:26.359Z,15.00
2017-08-30T04:33:53.864Z,15.00
2017-08-30T04:36:21.372Z,15.10
2017-08-30T04:38:48.891Z,15.10
2017-08-30T04:41:16.390Z,15.10
2017-08-30T04:43:43.911Z,15.10
2017-08-30T04:46:11.428Z,15.20
2017-08-30T04:48:38.951Z,15.20
2017-08-30T04:51:06.455Z,15.20
2017-08-30T04:53:33.979Z,15.20
2017-08-30T04:56:01.478Z,15.20
2017-08-30T04:58:28.999Z,15.30
2017-08-30T05:00:56.510Z,15.30
2017-08-30T05:03:24.039Z,15.20
2017-08-30T05:05:51.547Z,15.20
2017-08-30T05:08:19.072Z,15.20
2017-08-30T05:10:46.588Z,15.20
2017-08-30T05:13:14.103Z,15.30
2017-08-30T05:15:41.612Z,15.50
2017-08-30T05:18:09.126Z,15.50
2017-08-30T05:20:37.396Z,15.60
2017-08-30T05:23:05.679Z,15.60
2017-08-30T05:25:33.190Z,15.50
2017-08-30T05:28:00.731Z,15.60
2017-08-30T05:30:28.235Z,15.80
2017-08-30T05:32:56.506Z,15.90
2017-08-30T05:35:24.026Z,15.90
2017-08-30T05:37:51.531Z,16.00
2017-08-30T05:40:19.056Z,16.10
2017-08-30T05:42:46.563Z,16.20
2017-08-30T05:45:14.086Z,16.20
2017-08-30T05:47:41.595Z,16.40
2017-08-30T05:50:09.115Z,16.50
2017-08-30T05:52:36.635Z,16.50
2017-08-30T05:55:04.159Z,16.60
2017-08-30T05:57:31.667Z,16.80
2017-08-30T05:59:59.192Z,16.80
2017-08-30T06:02:26.700Z,16.90
2017-08-30T06:04:54.226Z,17.00
2017-08-30T06:07:21.735Z,17.10
2017-08-30T06:09:49.264Z,17.20
2017-08-30T06:12:16.771Z,17.40
2017-08-30T06:14:44.298Z,17.60
2017-08-30T06:17:11.803Z,17.80
2017-08-30T06:19:39.328Z,18.00
2017-08-30T06:22:06.834Z,18.30
2017-08-30T06:24:34.358Z,18.60
2017-08-30T06:27:01.867Z,18.90
2017-08-30T06:29:29.406Z,19.10
2017-08-30T06:31:56.915Z,19.30
2017-08-30T06:34:24.428Z,19.50
2017-08-30T06:36:51.952Z,19.60
2017-08-30T06:39:19.466Z,19.80
2017-08-30T06:41:46.991Z,19.90
2017-08-30T06:44:14.498Z,20.00
2017-08-30T06:46:42.038Z,20.10
2017-08-30T06:49:09.542Z,20.20
2017-08-30T06:51:37.063Z,20.30
2017-08-30T06:54:04.571Z,20.40
2017-08-30T06:56:32.090Z,20.60
2017-08-30T06:58:59.603Z,20.90
2017-08-30T07:01:27.131Z,21.00
2017-08-30T07:03:54.635Z,21.00
2017-08-30T07:06:22.158Z,21.00
2017-08-30T07:08:49.678Z,21.20
2017-08-30T07:11:17.203Z,21.30
2017-08-30T07:13:44.711Z,21.30
2017-08-30T07:16:12.239Z,21.50
2017-08-30T07:18:39.747Z,21.50
2017-08-30T07:21:07.263Z,21.60
2017-08-30T07:23:34.772Z,21.80
2017-08-30T07:26:02.275Z,21.80
2017-08-30T07:28:29.795Z,21.80
2017-08-30T07:30:57.299Z,21.90
2017-08-30T07:33:24.819Z,22.10
2017-08-30T07:35:52.327Z,22.10
2017-08-30T07:38:19.852Z,22.20
2017-08-30T07:40:47.351Z,22.30
2017-08-30T07:43:14.883Z,22.40
2017-08-30T07:45:42.387Z,22.50
2017-08-30T07:48:09.911Z,22.60
2017-08-30T07:50:37.414Z,22.70
2017-08-30T07:53:04.957Z,22.90
2017-08-30T07:55:32.462Z,23.10
2017-08-30T07:57:59.979Z,23.50
2017-08-30T08:00:27.487Z,23.60
2017-08-30T08:02:55.007Z,23.60
2017-08-30T08:05:22.511Z,23.60
2017-08-30T08:07:50.041Z,23.80
2017-08-30T08:10:17.543Z,24.10
2017-08-30T08:12:45.071Z,24.20
2017-08-30T08:15:12.575Z,24.40
2017-08-30T08:17:40.099Z,24.50
2017-08-30T08:20:07.598Z,24.40
2017-08-30T08:22:35.130Z,24.60
2017-08-30T08:25:02.640Z,24.50
2017-08-30T08:27:30.150Z,24.70
2017-08-30T08:29:58.431Z,25.00
2017-08-30T08:32:25.939Z,25.00
2017-08-30T08:34:53.455Z,25.30
2017-08-30T08:37:20.978Z,25.20
2017-08-30T08:39:48.500Z,25.40
2017-08-30T08:42:15.998Z,25.30
2017-08-30T08:44:43.516Z,25.50
2017-08-30T08:47:11.023Z,25.80
2017-08-30T08:49:38.547Z,25.80
2017-08-30T08:52:06.055Z,26.00
2017-08-30T08:54:33.576Z,26.10
2017-08-30T08:57:01.095Z,26.20
2017-08-30T08:59:28.624Z,26.40
2017-08-30T09:01:56.127Z,26.60
2017-08-30T09:04:23.643Z,26.60
2017-08-30T09:06:51.146Z,26.90
2017-08-30T09:09:18.662Z,26.90
2017-08-30T09:11:46.168Z,26.90
2017-08-30T09:14:13.692Z,27.10
2017-08-30T09:16:41.195Z,27.10
2017-08-30T09:19:08.730Z,27.20
2017-08-30T09:21:36.231Z,27.30
2017-08-30T09:24:03.740Z,27.20
2017-08-30T09:26:31.258Z,27.20
2017-08-30T09:28:58.768Z,27.30
2017-08-30T09:31:26.291Z,27.40
2017-08-30T09:33:54.564Z,27.90
2017-08-30T09:36:22.852Z,27.60
2017-08-30T09:38:50.354Z,27.60
2017-08-30T09:41:17.879Z,27.80
2017-08-30T09:43:45.383Z,27.90
2017-08-30T09:46:12.904Z,27.70
2017-08-30T09:48:40.403Z,27.90
2017-08-30T09:51:07.925Z,28.20
2017-08-30T09:53:35.440Z,28.40
2017-08-30T09:56:02.963Z,28.60
2017-08-30T09:58:30.471Z,28.70
2017-08-30T10:00:58.756Z,28.80
2017-08-30T10:03:26.263Z,28.80
2017-08-30T10:05:53.778Z,28.30
2017-08-30T10:08:21.283Z,28.20
2017-08-30T10:10:48.799Z,28.40
2017-08-30T10:13:16.300Z,28.50
2017-08-30T10:15:43.826Z,28.40
2017-08-30T10:18:11.324Z,28.50
2017-08-30T10:20:38.836Z,28.70
2017-08-30T10:23:06.364Z,28.70
2017-08-30T10:25:33.879Z,28.90
2017-08-30T10:28:01.394Z,29.00
2017-08-30T10:30:28.896Z,29.10
2017-08-30T10:32:56.419Z,28.90
2017-08-30T10:35:23.918Z,28.90
2017-08-30T10:37:51.439Z,28.90
2017-08-30T10:40:18.943Z,29.00
2017-08-30T10:42:46.467Z,29.00
2017-08-30T10:45:13.972Z,29.00
2017-08-30T10:47:41.495Z,29.10
2017-08-30T10:50:09.003Z,29.10
2017-08-30T10:52:36.532Z,29.40
2017-08-30T10:55:04.035Z,29.70
2017-08-30T10:57:31.560Z,30.00
2017-08-30T10:59:59.072Z,29.90
2017-08-30T11:02:26.595Z,29.80
2017-08-30T11:04:54.100Z,29.90
2017-08-30T11:07:21.618Z,30.00
2017-08-30T11:09:49.127Z,29.90
2017-08-30T11:12:16.654Z,29.90
2017-08-30T11:14:44.158Z,30.10
2017-08-30T11:17:11.663Z,30.10
2017-08-30T11:19:39.179Z,30.10
2017-08-30T11:22:06.679Z,30.00
2017-08-30T11:24:34.190Z,29.90
2017-08-30T11:27:01.690Z,30.10
2017-08-30T11:29:29.216Z,30.20
2017-08-30T11:31:56.728Z,30.30
2017-08-30T11:34:24.247Z,30.50
2017-08-30T11:36:51.747Z,30.60
2017-08-30T11:39:19.267Z,30.70
2017-08-30T11:41:46.770Z,30.20
2017-08-30T11:44:14.296Z,29.90
2017-08-30T11:46:41.798Z,30.10
2017-08-30T11:49:09.319Z,30.30
2017-08-30T11:51:36.823Z,30.30
2017-08-30T11:54:04.343Z,30.00
2017-08-30T11:56:31.852Z,30.10
2017-08-30T11:58:59.378Z,30.10
2017-08-30T12:01:26.892Z,30.10
2017-08-30T12:03:54.411Z,30.20
2017-08-30T12:06:21.916Z,30.30
2017-08-30T12:08:49.439Z,30.30
2017-08-30T12:11:16.943Z,30.20
2017-08-30T12:13:44.446Z,30.40
2017-08-30T12:16:11.962Z,30.40
2017-08-30T12:18:39.474Z,30.50
2017-08-30T12:21:06.995Z,30.50
2017-08-30T12:23:34.499Z,30.40
2017-08-30T12:26:02.020Z,30.30
2017-08-30T12:28:29.523Z,30.10
2017-08-30T12:30:57.046Z,30.10
2017-08-30T12:33:24.551Z,30.30
2017-08-30T12:35:52.839Z,30.50
2017-08-30T12:38:25.911Z,30.40
2017-08-30T12:40:53.430Z,30.50
2017-08-30T12:43:20.930Z,30.70
2017-08-30T12:45:48.455Z,30.70
2017-08-30T12:48:15.959Z,30.70
2017-08-30T12:50:43.482Z,30.80
2017-08-30T12:53:10.995Z,30.80
2017-08-30T12:55:38.515Z,30.60
2017-08-30T12:58:06.027Z,30.70
2017-08-30T13:00:33.549Z,30.70
2017-08-30T13:03:01.812Z,30.60
2017-08-30T13:05:29.317Z,30.60
2017-08-30T13:07:56.838Z,30.60
2017-08-30T13:10:24.351Z,30.60
2017-08-30T13:12:51.880Z,30.50
2017-08-30T13:15:19.382Z,30.60
2017-08-30T13:17:46.899Z,30.60
2017-08-30T13:20:14.405Z,30.80
2017-08-30T13:22:41.938Z,30.80
2017-08-30T13:25:09.444Z,31.00
2017-08-30T13:27:36.971Z,31.00
2017-08-30T13:30:04.480Z,30.80
2017-08-30T13:32:32.003Z,30.80
2017-08-30T13:34:59.504Z,30.60
2017-08-30T13:37:27.024Z,30.60
2017-08-30T13:39:54.523Z,30.60
2017-08-30T13:42:22.039Z,30.60
2017-08-30T13:44:49.543Z,30.60
2017-08-30T13:47:17.071Z,30.50
2017-08-30T13:49:44.571Z,30.50
2017-08-30T13:52:12.087Z,30.30
2017-08-30T13:54:39.591Z,30.10
2017-08-30T13:57:07.108Z,30.10
2017-08-30T13:59:34.628Z,30.00
2017-08-30T14:02:02.183Z,29.80
2017-08-30T14:04:29.687Z,29.80
2017-08-30T14:06:57.197Z,29.80
2017-08-30T14:09:24.716Z,29.80
2017-08-30T14:11:52.232Z,29.70
2017-08-30T14:14:19.752Z,29.70
2017-08-30T14:16:47.252Z,29.50
2017-08-30T14:19:14.776Z,29.50
2017-08-30T14:21:42.280Z,29.40
2017-08-30T14:24:09.798Z,29.30
2017-08-30T14:26:37.299Z,29.20
2017-08-30T14:29:05.587Z,29.20
2017-08-30T14:31:33.091Z,29.30
2017-08-30T14:34:00.617Z,29.30
2017-08-30T14:36:28.119Z,29.40
2017-08-30T14:38:55.640Z,29.40
2017-08-30T14:41:23.139Z,29.50
2017-08-30T14:43:50.666Z,29.50
2017-08-30T14:46:18.194Z,29.50
2017-08-30T14:48:45.714Z,29.50
2017-08-30T14:51:13.219Z,29.50
2017-08-30T14:53:40.739Z,29.40
2017-08-30T14:56:08.247Z,29.40
2017-08-30T14:58:35.781Z,29.40
2017-08-30T15:01:03.279Z,29.30
2017-08-30T15:03:30.783Z,29.20
2017-08-30T15:05:58.303Z,29.20
2017-08-30T15:08:25.802Z,29.20
2017-08-30T15:10:53.315Z,29.20
2017-08-30T15:13:20.819Z,29.20
2017-08-30T15:15:48.339Z,29.20
2017-08-30T15:18:15.852Z,29.20
2017-08-30T15:20:43.372Z,29.20
2017-08-30T15:23:10.880Z,29.10
2017-08-30T15:25:38.404Z,28.90
2017-08-30T15:28:05.908Z,29.00
2017-08-30T15:30:33.431Z,29.00
2017-08-30T15:33:00.935Z,29.10
2017-08-30T15:35:28.463Z,29.10
2017-08-30T15:37:55.975Z,29.10
2017-08-30T15:40:23.499Z,29.20
2017-08-30T15:42:51.013Z,29.10
2017-08-30T15:45:19.297Z,29.00
2017-08-30T15:47:46.808Z,29.00
2017-08-30T15:50:14.331Z,29.10
2017-08-30T15:52:41.830Z,29.10
2017-08-30T15:55:09.353Z,29.10
2017-08-30T15:57:36.855Z,28.90
2017-08-30T16:00:04.392Z,28.70
2017-08-30T16:02:31.897Z,28.70
2017-08-30T16:04:59.406Z,28.80
2017-08-30T16:07:26.923Z,28.60
2017-08-30T16:09:54.432Z,28.70
2017-08-30T16:12:21.955Z,28.60
2017-08-30T16:14:49.459Z,28.50
2017-08-30T16:17:16.984Z,28.30
2017-08-30T16:19:44.486Z,28.20
2017-08-30T16:22:12.009Z,28.10
2017-08-30T16:24:39.510Z,28.00
2017-08-30T16:27:07.035Z,27.90
2017-08-30T16:29:34.546Z,27.80
2017-08-30T16:32:02.071Z,27.60
2017-08-30T16:34:29.583Z,27.40
2017-08-30T16:36:57.103Z,27.30
2017-08-30T16:39:24.608Z,27.20
2017-08-30T16:41:52.132Z,27.00
2017-08-30T16:44:20.407Z,26.90
2017-08-30T16:46:47.931Z,26.90
2017-08-30T16:49:15.439Z,26.80
2017-08-30T16:51:42.967Z,26.80
2017-08-30T16:54:10.471Z,26.70
2017-08-30T16:56:37.983Z,26.70
2017-08-30T16:59:05.491Z,26.50
2017-08-30T17:01:32.996Z,26.40
2017-08-30T17:04:00.518Z,26.30
2017-08-30T17:06:28.023Z,26.20
2017-08-30T17:08:55.547Z,26.20
2017-08-30T17:11:23.047Z,26.10
2017-08-30T17:13:50.568Z,26.10
2017-08-30T17:16:18.078Z,26.00
2017-08-30T17:18:46.354Z,25.80
2017-08-30T17:21:13.859Z,25.80
2017-08-30T17:23:41.376Z,25.70
2017-08-30T17:26:08.883Z,25.60
2017-08-30T17:28:36.404Z,25.50
2017-08-30T17:31:03.914Z,25.50
2017-08-30T17:33:31.441Z,25.40
2017-08-30T17:35:58.952Z,25.30
2017-08-30T17:38:26.479Z,25.20
2017-08-30T17:40:53.989Z,25.00
2017-08-30T17:43:21.520Z,25.00
2017-08-30T17:45:49.024Z,24.90
2017-08-30T17:48:16.547Z,24.70
2017-08-30T17:50:44.067Z,24.60
2017-08-30T17:53:11.607Z,24.60
2017-08-30T17:55:39.119Z,24.40
2017-08-30T17:58:06.630Z,24.10
2017-08-30T18:00:34.164Z,24.00
2017-08-30T18:03:01.679Z,23.90
2017-08-30T18:05:29.202Z,23.70
2017-08-30T18:07:56.715Z,23.60
2017-08-30T18:10:25.184Z,23.40
2017-08-30T18:12:52.692Z,23.30
2017-08-30T18:15:20.212Z,23.30
2017-08-30T18:17:48.475Z,23.10
2017-08-30T18:20:15.998Z,23.10
2017-08-30T18:22:43.503Z,23.00
2017-08-30T18:25:11.030Z,23.10
2017-08-30T18:27:38.533Z,22.90
2017-08-30T18:30:06.060Z,22.90
2017-08-30T18:32:33.624Z,22.60
2017-08-30T18:35:01.151Z,22.50
2017-08-30T18:37:28.659Z,22.40
2017-08-30T18:39:56.178Z,22.30
2017-08-30T18:42:23.690Z,22.20
2017-08-30T18:44:51.223Z,22.10
2017-08-30T18:47:18.733Z,22.00
2017-08-30T18:49:46.272Z,21.90
2017-08-30T18:52:13.781Z,21.80
2017-08-30T18:54:41.284Z,21.80
2017-08-30T18:57:08.808Z,21.70
2017-08-30T18:59:36.314Z,21.70
2017-08-30T19:02:03.834Z,21.80
2017-08-30T19:04:31.343Z,21.70
2017-08-30T19:06:58.868Z,21.80
2017-08-30T19:09:26.375Z,21.90
2017-08-30T19:11:53.899Z,22.00
2017-08-30T19:14:21.411Z,21.90
2017-08-30T19:16:48.934Z,22.00
2017-08-30T19:19:16.443Z,22.00
2017-08-30T19:21:43.967Z,21.90
2017-08-30T19:24:11.475Z,21.90
2017-08-30T19:26:38.999Z,21.90
2017-08-30T19:29:06.511Z,21.80
2017-08-30T19:31:34.045Z,21.70
2017-08-30T19:34:01.555Z,21.50
2017-08-30T19:36:29.081Z,21.40
2017-08-30T19:38:56.587Z,21.30
2017-08-30T19:41:24.111Z,21.10
2017-08-30T19:43:51.623Z,21.10
2017-08-30T19:46:19.127Z,21.10
2017-08-30T19:48:46.649Z,21.10
2017-08-30T19:51:14.157Z,21.00
2017-08-30T19:53:41.688Z,20.90
2017-08-30T19:56:09.196Z,20.90
2017-08-30T19:58:36.719Z,20.80
2017-08-30T20:01:04.226Z,20.70
2017-08-30T20:03:31.757Z,20.60
2017-08-30T20:05:59.275Z,20.60
2017-08-30T20:08:26.797Z,20.50
2017-08-30T20:10:54.301Z,20.40
2017-08-30T20:13:21.811Z,20.40
2017-08-30T20:15:49.333Z,20.40
2017-08-30T20:18:16.840Z,20.30
2017-08-30T20:20:44.366Z,20.20
2017-08-30T20:23:11.880Z,20.20
2017-08-30T20:25:39.403Z,20.20
2017-08-30T20:28:06.912Z,20.10
2017-08-30T20:30:34.440Z,20.10
2017-08-30T20:33:01.947Z,20.10
2017-08-30T20:35:29.460Z,20.20
2017-08-30T20:37:56.986Z,20.20
2017-08-30T20:40:24.492Z,20.10
2017-08-30T20:42:52.030Z,20.10
2017-08-30T20:45:19.536Z,20.00
2017-08-30T20:47:47.055Z,20.00
2017-08-30T20:50:14.558Z,19.90
2017-08-30T20:52:42.068Z,19.90
2017-08-30T20:55:09.591Z,19.90
2017-08-30T20:57:37.105Z,19.90
2017-08-30T21:00:05.400Z,20.00
2017-08-30T21:02:32.906Z,20.00
2017-08-30T21:05:00.428Z,20.10
2017-08-30T21:07:27.930Z,20.10
2017-08-30T21:09:56.465Z,20.00
2017-08-30T21:12:23.972Z,20.00
2017-08-30T21:14:51.504Z,20.00
2017-08-30T21:17:19.012Z,19.90
2017-08-30T21:19:46.544Z,19.90
2017-08-30T21:22:14.052Z,20.00
2017-08-30T21:24:41.571Z,20.00
2017-08-30T21:27:09.081Z,20.20
2017-08-30T21:29:36.615Z,20.60
2017-08-30T21:32:04.127Z,20.80
2017-08-30T21:34:31.650Z,21.00
2017-08-30T21:36:59.154Z,20.90
2017-08-30T21:39:26.680Z,20.90
2017-08-30T21:41:54.251Z,20.80
2017-08-30T21:44:21.779Z,20.70
2017-08-30T21:46:49.280Z,20.40
2017-08-30T21:49:16.807Z,20.20
2017-08-30T21:51:44.310Z,20.10
2017-08-30T21:54:11.839Z,20.00
2017-08-30T21:56:39.344Z,19.90
2017-08-30T21:59:06.856Z,19.90
2017-08-30T22:01:34.383Z,19.80
2017-08-30T22:04:01.896Z,19.80
2017-08-30T22:06:29.422Z,19.80
2017-08-30T22:08:56.927Z,19.80
2017-08-30T22:11:24.452Z,19.70
2017-08-30T22:13:51.963Z,19.60
2017-08-30T22:16:19.487Z,19.60
2017-08-30T22:18:47.759Z,19.60
2017-08-30T22:21:16.046Z,19.60
2017-08-30T22:23:43.555Z,19.60
2017-08-30T22:26:11.079Z,19.60
2017-08-30T22:28:38.588Z,19.60
2017-08-30T22:31:06.119Z,19.70
2017-08-30T22:33:33.627Z,19.70
2017-08-30T22:36:01.151Z,19.90
2017-08-30T22:38:28.658Z,20.10
2017-08-30T22:40:56.212Z,20.20
2017-08-30T22:43:24.483Z,20.30
2017-08-30T22:45:52.008Z,20.20
2017-08-30T22:48:19.512Z,20.40
2017-08-30T22:50:47.035Z,20.40
2017-08-30T22:53:14.547Z,20.40
2017-08-30T22:55:42.082Z,20.50
2017-08-30T22:58:09.588Z,20.60
2017-08-30T23:00:37.105Z,20.70
2017-08-30T23:03:04.631Z,20.80
2017-08-30T23:05:32.136Z,20.90
2017-08-30T23:07:59.658Z,20.90
2017-08-30T23:10:27.166Z,20.90
2017-08-30T23:12:54.687Z,21.00
2017-08-30T23:15:22.190Z,20.90
2017-08-30T23:17:49.715Z,21.10
2017-08-30T23:20:17.218Z,21.10
2017-08-30T23:22:44.739Z,21.10
2017-08-30T23:25:12.247Z,21.10
2017-08-30T23:27:39.768Z,21.10
2017-08-30T23:30:07.279Z,21.10
2017-08-30T23:32:34.808Z,21.10
2017-08-30T23:35:02.319Z,21.10
2017-08-30T23:37:29.847Z,21.10
2017-08-30T23:39:57.359Z,21.00
2017-08-30T23:42:24.882Z,20.90
2017-08-30T23:44:52.383Z,20.90
2017-08-30T23:47:19.912Z,20.70
2017-08-30T23:49:47.423Z,20.70
2017-08-30T23:52:14.958Z,20.70
2017-08-30T23:54:42.463Z,20.60
2017-08-30T23:57:09.995Z,20.60
2017-08-30T23:59:37.499Z,20.50
